sensor_id;sensor_type;location;lat;lon;timestamp;P1;durP1;ratioP1;P2;durP2;ratioP2
66212;SDS011;53015;50.046;8.238;2022-10-16T00:00:16;4.30;;;1.50;;
66212;SDS011;53015;50.046;8.238;2022-10-16T00:02:42;4.65;;;1.67;;
66212;SDS011;53015;50.046;8.238;2022-10-16T00:05:07;2.95;;;1.73;;
66212;SDS011;53015;50.046;8.238;2022-10-16T00:07:32;4.65;;;1.50;;
66212;SDS011;53015;50.046;8.238;2022-10-16T00:09:58;3.13;;;1.63;;
66212;SDS011;53015;50.046;8.238;2022-10-16T00:12:23;4.20;;;1.70;;
66212;SDS011;53015;50.046;8.238;2022-10-16T00:14:48;3.00;;;1.35;;
66212;SDS011;53015;50.046;8.238;2022-10-16T00:17:14;6.75;;;1.70;;
66212;SDS011;53015;50.046;8.238;2022-10-16T00:19:39;5.50;;;1.70;;
66212;SDS011;53015;50.046;8.238;2022-10-16T00:22:05;3.17;;;1.70;;
66212;SDS011;53015;50.046;8.238;2022-10-16T00:24:30;2.00;;;1.50;;
66212;SDS011;53015;50.046;8.238;2022-10-16T00:26:56;3.10;;;1.77;;
66212;SDS011;53015;50.046;8.238;2022-10-16T00:29:21;2.42;;;1.52;;
66212;SDS011;53015;50.046;8.238;2022-10-16T00:31:47;4.30;;;1.60;;
66212;SDS011;53015;50.046;8.238;2022-10-16T00:34:12;4.60;;;1.35;;
66212;SDS011;53015;50.046;8.238;2022-10-16T00:36:37;3.53;;;1.80;;
66212;SDS011;53015;50.046;8.238;2022-10-16T00:39:03;4.32;;;1.55;;
66212;SDS011;53015;50.046;8.238;2022-10-16T00:41:28;4.05;;;1.42;;
66212;SDS011;53015;50.046;8.238;2022-10-16T00:43:55;6.18;;;1.63;;
66212;SDS011;53015;50.046;8.238;2022-10-16T00:46:23;2.97;;;1.63;;
66212;SDS011;53015;50.046;8.238;2022-10-16T00:49:08;4.13;;;1.40;;
66212;SDS011;53015;50.046;8.238;2022-10-16T00:51:37;10.23;;;1.80;;
66212;SDS011;53015;50.046;8.238;2022-10-16T00:54:07;6.13;;;1.50;;
66212;SDS011;53015;50.046;8.238;2022-10-16T00:56:35;8.45;;;1.65;;
66212;SDS011;53015;50.046;8.238;2022-10-16T00:59:02;1.70;;;1.45;;
66212;SDS011;53015;50.046;8.238;2022-10-16T01:01:32;3.47;;;1.60;;
66212;SDS011;53015;50.046;8.238;2022-10-16T01:03:57;8.80;;;2.10;;
66212;SDS011;53015;50.046;8.238;2022-10-16T01:06:30;4.25;;;1.80;;
66212;SDS011;53015;50.046;8.238;2022-10-16T01:09:21;4.57;;;2.13;;
66212;SDS011;53015;50.046;8.238;2022-10-16T01:11:56;4.80;;;1.90;;
66212;SDS011;53015;50.046;8.238;2022-10-16T01:14:32;5.47;;;2.00;;
66212;SDS011;53015;50.046;8.238;2022-10-16T01:17:19;3.50;;;1.92;;
66212;SDS011;53015;50.046;8.238;2022-10-16T01:25:16;7.38;;;2.22;;
66212;SDS011;53015;50.046;8.238;2022-10-16T01:27:50;8.55;;;2.40;;
66212;SDS011;53015;50.046;8.238;2022-10-16T01:30:18;4.65;;;2.40;;
66212;SDS011;53015;50.046;8.238;2022-10-16T01:35:46;6.13;;;2.22;;
66212;SDS011;53015;50.046;8.238;2022-10-16T01:38:21;2.92;;;1.90;;
66212;SDS011;53015;50.046;8.238;2022-10-16T01:40:57;3.67;;;2.13;;
66212;SDS011;53015;50.046;8.238;2022-10-16T01:43:43;3.28;;;2.25;;
66212;SDS011;53015;50.046;8.238;2022-10-16T01:46:13;8.68;;;2.53;;
66212;SDS011;53015;50.046;8.238;2022-10-16T01:48:41;9.68;;;2.30;;
66212;SDS011;53015;50.046;8.238;2022-10-16T01:51:08;4.68;;;2.05;;
66212;SDS011;53015;50.046;8.238;2022-10-16T01:53:36;6.22;;;2.20;;
66212;SDS011;53015;50.046;8.238;2022-10-16T01:56:03;9.60;;;2.30;;
66212;SDS011;53015;50.046;8.238;2022-10-16T01:58:33;6.03;;;2.22;;
66212;SDS011;53015;50.046;8.238;2022-10-16T02:01:02;4.63;;;2.17;;
66212;SDS011;53015;50.046;8.238;2022-10-16T02:03:29;6.55;;;1.90;;
66212;SDS011;53015;50.046;8.238;2022-10-16T02:05:55;7.63;;;2.20;;
66212;SDS011;53015;50.046;8.238;2022-10-16T02:08:23;10.63;;;2.10;;
66212;SDS011;53015;50.046;8.238;2022-10-16T02:10:53;6.03;;;2.03;;
66212;SDS011;53015;50.046;8.238;2022-10-16T02:13:24;5.78;;;2.40;;
66212;SDS011;53015;50.046;8.238;2022-10-16T02:15:55;3.92;;;2.20;;
66212;SDS011;53015;50.046;8.238;2022-10-16T02:18:20;3.10;;;2.60;;
66212;SDS011;53015;50.046;8.238;2022-10-16T02:20:49;4.25;;;2.70;;
66212;SDS011;53015;50.046;8.238;2022-10-16T02:23:43;4.20;;;2.37;;
66212;SDS011;53015;50.046;8.238;2022-10-16T02:26:27;6.35;;;2.40;;
66212;SDS011;53015;50.046;8.238;2022-10-16T02:28:58;8.43;;;2.25;;
66212;SDS011;53015;50.046;8.238;2022-10-16T02:31:30;4.95;;;2.45;;
66212;SDS011;53015;50.046;8.238;2022-10-16T02:33:59;5.68;;;2.78;;
66212;SDS011;53015;50.046;8.238;2022-10-16T02:36:26;5.97;;;2.45;;
66212;SDS011;53015;50.046;8.238;2022-10-16T02:38:52;5.13;;;2.17;;
66212;SDS011;53015;50.046;8.238;2022-10-16T02:41:18;6.72;;;2.53;;
66212;SDS011;53015;50.046;8.238;2022-10-16T02:43:45;5.97;;;2.25;;
66212;SDS011;53015;50.046;8.238;2022-10-16T02:46:10;7.40;;;3.17;;
66212;SDS011;53015;50.046;8.238;2022-10-16T02:48:36;5.82;;;2.15;;
66212;SDS011;53015;50.046;8.238;2022-10-16T02:51:01;4.82;;;2.53;;
66212;SDS011;53015;50.046;8.238;2022-10-16T02:53:27;5.13;;;2.28;;
66212;SDS011;53015;50.046;8.238;2022-10-16T02:55:52;7.45;;;2.67;;
66212;SDS011;53015;50.046;8.238;2022-10-16T02:58:17;9.27;;;2.40;;
66212;SDS011;53015;50.046;8.238;2022-10-16T03:00:43;3.78;;;2.72;;
66212;SDS011;53015;50.046;8.238;2022-10-16T03:03:08;7.15;;;2.40;;
66212;SDS011;53015;50.046;8.238;2022-10-16T03:05:34;4.95;;;2.45;;
66212;SDS011;53015;50.046;8.238;2022-10-16T03:07:59;5.97;;;2.30;;
66212;SDS011;53015;50.046;8.238;2022-10-16T03:10:25;3.08;;;2.13;;
66212;SDS011;53015;50.046;8.238;2022-10-16T03:12:51;8.52;;;2.78;;
66212;SDS011;53015;50.046;8.238;2022-10-16T03:15:16;6.07;;;2.33;;
66212;SDS011;53015;50.046;8.238;2022-10-16T03:17:42;9.93;;;2.35;;
66212;SDS011;53015;50.046;8.238;2022-10-16T03:20:08;4.35;;;2.38;;
66212;SDS011;53015;50.046;8.238;2022-10-16T03:22:33;5.38;;;1.92;;
66212;SDS011;53015;50.046;8.238;2022-10-16T03:24:59;6.85;;;2.60;;
66212;SDS011;53015;50.046;8.238;2022-10-16T03:27:24;4.10;;;2.20;;
66212;SDS011;53015;50.046;8.238;2022-10-16T03:29:50;5.20;;;2.22;;
66212;SDS011;53015;50.046;8.238;2022-10-16T03:32:15;8.10;;;2.30;;
66212;SDS011;53015;50.046;8.238;2022-10-16T03:34:40;3.85;;;2.20;;
66212;SDS011;53015;50.046;8.238;2022-10-16T03:37:06;5.95;;;2.05;;
66212;SDS011;53015;50.046;8.238;2022-10-16T03:39:31;7.05;;;2.58;;
66212;SDS011;53015;50.046;8.238;2022-10-16T03:41:57;5.25;;;2.13;;
66212;SDS011;53015;50.046;8.238;2022-10-16T03:44:22;3.45;;;2.47;;
66212;SDS011;53015;50.046;8.238;2022-10-16T03:46:47;5.70;;;2.22;;
66212;SDS011;53015;50.046;8.238;2022-10-16T03:49:13;2.75;;;2.20;;
66212;SDS011;53015;50.046;8.238;2022-10-16T03:51:38;2.83;;;1.92;;
66212;SDS011;53015;50.046;8.238;2022-10-16T03:54:04;5.30;;;2.55;;
66212;SDS011;53015;50.046;8.238;2022-10-16T03:56:29;2.00;;;1.90;;
66212;SDS011;53015;50.046;8.238;2022-10-16T03:58:55;4.22;;;2.45;;
66212;SDS011;53015;50.046;8.238;2022-10-16T04:01:20;4.07;;;2.42;;
66212;SDS011;53015;50.046;8.238;2022-10-16T04:03:45;3.50;;;2.50;;
66212;SDS011;53015;50.046;8.238;2022-10-16T04:06:11;3.90;;;2.13;;
66212;SDS011;53015;50.046;8.238;2022-10-16T04:08:36;5.60;;;2.15;;
66212;SDS011;53015;50.046;8.238;2022-10-16T04:11:04;4.90;;;2.78;;
66212;SDS011;53015;50.046;8.238;2022-10-16T04:13:29;6.65;;;2.72;;
66212;SDS011;53015;50.046;8.238;2022-10-16T04:15:55;5.35;;;2.80;;
66212;SDS011;53015;50.046;8.238;2022-10-16T04:18:20;12.30;;;2.83;;
66212;SDS011;53015;50.046;8.238;2022-10-16T04:20:45;4.15;;;2.38;;
66212;SDS011;53015;50.046;8.238;2022-10-16T04:23:11;3.83;;;2.17;;
66212;SDS011;53015;50.046;8.238;2022-10-16T04:25:36;4.30;;;2.53;;
66212;SDS011;53015;50.046;8.238;2022-10-16T04:28:02;7.75;;;2.50;;
66212;SDS011;53015;50.046;8.238;2022-10-16T04:30:27;6.40;;;2.65;;
66212;SDS011;53015;50.046;8.238;2022-10-16T04:32:53;4.03;;;2.83;;
66212;SDS011;53015;50.046;8.238;2022-10-16T04:35:19;5.72;;;2.67;;
66212;SDS011;53015;50.046;8.238;2022-10-16T04:37:45;6.10;;;2.80;;
66212;SDS011;53015;50.046;8.238;2022-10-16T04:40:11;9.00;;;2.63;;
66212;SDS011;53015;50.046;8.238;2022-10-16T04:42:37;3.88;;;2.67;;
66212;SDS011;53015;50.046;8.238;2022-10-16T04:45:03;4.28;;;2.50;;
66212;SDS011;53015;50.046;8.238;2022-10-16T04:47:30;6.68;;;2.60;;
66212;SDS011;53015;50.046;8.238;2022-10-16T04:49:55;5.75;;;2.38;;
66212;SDS011;53015;50.046;8.238;2022-10-16T04:52:21;9.27;;;3.05;;
66212;SDS011;53015;50.046;8.238;2022-10-16T04:54:49;3.70;;;2.80;;
66212;SDS011;53015;50.046;8.238;2022-10-16T04:57:15;3.40;;;2.58;;
66212;SDS011;53015;50.046;8.238;2022-10-16T04:59:40;4.43;;;2.70;;
66212;SDS011;53015;50.046;8.238;2022-10-16T05:02:06;6.72;;;2.58;;
66212;SDS011;53015;50.046;8.238;2022-10-16T05:04:31;5.40;;;2.55;;
66212;SDS011;53015;50.046;8.238;2022-10-16T05:06:56;3.92;;;2.35;;
66212;SDS011;53015;50.046;8.238;2022-10-16T05:09:22;5.55;;;2.53;;
66212;SDS011;53015;50.046;8.238;2022-10-16T05:11:47;3.42;;;2.10;;
66212;SDS011;53015;50.046;8.238;2022-10-16T05:14:13;6.82;;;2.80;;
66212;SDS011;53015;50.046;8.238;2022-10-16T05:16:38;8.48;;;2.75;;
66212;SDS011;53015;50.046;8.238;2022-10-16T05:19:03;5.72;;;2.63;;
66212;SDS011;53015;50.046;8.238;2022-10-16T05:21:29;7.68;;;2.80;;
66212;SDS011;53015;50.046;8.238;2022-10-16T05:23:54;7.50;;;2.40;;
66212;SDS011;53015;50.046;8.238;2022-10-16T05:26:20;5.80;;;2.40;;
66212;SDS011;53015;50.046;8.238;2022-10-16T05:28:45;5.95;;;2.40;;
66212;SDS011;53015;50.046;8.238;2022-10-16T05:31:12;5.63;;;2.65;;
66212;SDS011;53015;50.046;8.238;2022-10-16T05:33:37;6.65;;;2.80;;
66212;SDS011;53015;50.046;8.238;2022-10-16T05:36:03;3.20;;;2.70;;
66212;SDS011;53015;50.046;8.238;2022-10-16T05:38:31;4.68;;;2.60;;
66212;SDS011;53015;50.046;8.238;2022-10-16T05:40:56;6.28;;;2.90;;
66212;SDS011;53015;50.046;8.238;2022-10-16T05:43:22;4.63;;;2.72;;
66212;SDS011;53015;50.046;8.238;2022-10-16T05:45:57;3.25;;;2.88;;
66212;SDS011;53015;50.046;8.238;2022-10-16T05:48:25;6.72;;;2.83;;
66212;SDS011;53015;50.046;8.238;2022-10-16T05:51:04;7.43;;;3.15;;
66212;SDS011;53015;50.046;8.238;2022-10-16T05:53:32;5.13;;;2.72;;
66212;SDS011;53015;50.046;8.238;2022-10-16T05:55:59;5.13;;;2.60;;
66212;SDS011;53015;50.046;8.238;2022-10-16T05:58:28;6.45;;;2.60;;
66212;SDS011;53015;50.046;8.238;2022-10-16T06:00:56;5.15;;;2.95;;
66212;SDS011;53015;50.046;8.238;2022-10-16T06:03:23;6.22;;;3.13;;
66212;SDS011;53015;50.046;8.238;2022-10-16T06:05:48;8.25;;;2.90;;
66212;SDS011;53015;50.046;8.238;2022-10-16T06:08:14;4.22;;;3.15;;
66212;SDS011;53015;50.046;8.238;2022-10-16T06:10:39;4.43;;;3.00;;
66212;SDS011;53015;50.046;8.238;2022-10-16T06:13:05;3.25;;;2.65;;
66212;SDS011;53015;50.046;8.238;2022-10-16T06:15:30;4.55;;;2.78;;
66212;SDS011;53015;50.046;8.238;2022-10-16T06:17:55;3.95;;;2.92;;
66212;SDS011;53015;50.046;8.238;2022-10-16T06:20:21;3.95;;;2.90;;
66212;SDS011;53015;50.046;8.238;2022-10-16T06:22:46;6.13;;;3.13;;
66212;SDS011;53015;50.046;8.238;2022-10-16T06:25:12;5.47;;;3.00;;
66212;SDS011;53015;50.046;8.238;2022-10-16T06:27:39;6.13;;;3.10;;
66212;SDS011;53015;50.046;8.238;2022-10-16T06:30:05;9.10;;;3.40;;
66212;SDS011;53015;50.046;8.238;2022-10-16T06:32:31;3.50;;;3.08;;
66212;SDS011;53015;50.046;8.238;2022-10-16T06:34:57;8.88;;;3.55;;
66212;SDS011;53015;50.046;8.238;2022-10-16T06:37:22;5.45;;;3.22;;
66212;SDS011;53015;50.046;8.238;2022-10-16T06:39:48;3.75;;;3.33;;
66212;SDS011;53015;50.046;8.238;2022-10-16T06:42:13;11.63;;;3.03;;
66212;SDS011;53015;50.046;8.238;2022-10-16T06:44:38;8.63;;;3.40;;
66212;SDS011;53015;50.046;8.238;2022-10-16T06:47:04;8.02;;;2.90;;
66212;SDS011;53015;50.046;8.238;2022-10-16T06:49:29;5.30;;;2.92;;
66212;SDS011;53015;50.046;8.238;2022-10-16T06:51:54;6.95;;;3.45;;
66212;SDS011;53015;50.046;8.238;2022-10-16T06:54:20;8.57;;;3.10;;
66212;SDS011;53015;50.046;8.238;2022-10-16T06:56:45;6.38;;;3.10;;
66212;SDS011;53015;50.046;8.238;2022-10-16T06:59:11;7.07;;;2.90;;
66212;SDS011;53015;50.046;8.238;2022-10-16T07:01:36;5.57;;;3.03;;
66212;SDS011;53015;50.046;8.238;2022-10-16T07:04:02;2.97;;;2.67;;
66212;SDS011;53015;50.046;8.238;2022-10-16T07:06:30;4.25;;;2.80;;
66212;SDS011;53015;50.046;8.238;2022-10-16T07:08:57;4.57;;;3.15;;
66212;SDS011;53015;50.046;8.238;2022-10-16T07:11:23;8.10;;;3.28;;
66212;SDS011;53015;50.046;8.238;2022-10-16T07:13:49;4.43;;;3.17;;
66212;SDS011;53015;50.046;8.238;2022-10-16T07:16:16;4.65;;;2.92;;
66212;SDS011;53015;50.046;8.238;2022-10-16T07:18:43;5.07;;;2.97;;
66212;SDS011;53015;50.046;8.238;2022-10-16T07:21:14;9.00;;;3.10;;
66212;SDS011;53015;50.046;8.238;2022-10-16T07:23:41;7.93;;;3.00;;
66212;SDS011;53015;50.046;8.238;2022-10-16T07:26:07;4.78;;;2.88;;
66212;SDS011;53015;50.046;8.238;2022-10-16T07:28:33;2.97;;;2.70;;
66212;SDS011;53015;50.046;8.238;2022-10-16T07:31:03;4.40;;;3.40;;
66212;SDS011;53015;50.046;8.238;2022-10-16T07:33:32;7.00;;;3.60;;
66212;SDS011;53015;50.046;8.238;2022-10-16T07:35:59;8.40;;;3.53;;
66212;SDS011;53015;50.046;8.238;2022-10-16T07:38:24;7.32;;;3.47;;
66212;SDS011;53015;50.046;8.238;2022-10-16T07:40:59;9.07;;;4.30;;
66212;SDS011;53015;50.046;8.238;2022-10-16T07:43:26;8.90;;;5.03;;
66212;SDS011;53015;50.046;8.238;2022-10-16T07:45:52;8.77;;;4.30;;
66212;SDS011;53015;50.046;8.238;2022-10-16T07:48:18;8.77;;;4.50;;
66212;SDS011;53015;50.046;8.238;2022-10-16T07:50:44;10.18;;;4.75;;
66212;SDS011;53015;50.046;8.238;2022-10-16T07:53:10;8.85;;;4.30;;
66212;SDS011;53015;50.046;8.238;2022-10-16T07:55:36;8.90;;;4.22;;
66212;SDS011;53015;50.046;8.238;2022-10-16T07:58:01;10.20;;;4.15;;
66212;SDS011;53015;50.046;8.238;2022-10-16T08:00:27;6.35;;;4.03;;
66212;SDS011;53015;50.046;8.238;2022-10-16T08:02:52;6.78;;;3.58;;
66212;SDS011;53015;50.046;8.238;2022-10-16T08:05:17;5.07;;;3.63;;
66212;SDS011;53015;50.046;8.238;2022-10-16T08:07:47;5.65;;;3.83;;
66212;SDS011;53015;50.046;8.238;2022-10-16T08:10:17;11.45;;;4.97;;
66212;SDS011;53015;50.046;8.238;2022-10-16T08:12:44;9.68;;;3.75;;
66212;SDS011;53015;50.046;8.238;2022-10-16T08:15:09;7.53;;;3.75;;
66212;SDS011;53015;50.046;8.238;2022-10-16T08:17:35;8.60;;;3.90;;
66212;SDS011;53015;50.046;8.238;2022-10-16T08:20:00;5.40;;;3.95;;
66212;SDS011;53015;50.046;8.238;2022-10-16T08:22:26;8.10;;;3.70;;
66212;SDS011;53015;50.046;8.238;2022-10-16T08:24:52;6.88;;;3.55;;
66212;SDS011;53015;50.046;8.238;2022-10-16T08:27:17;5.93;;;4.10;;
66212;SDS011;53015;50.046;8.238;2022-10-16T08:29:42;8.73;;;3.75;;
66212;SDS011;53015;50.046;8.238;2022-10-16T08:32:08;8.20;;;4.32;;
66212;SDS011;53015;50.046;8.238;2022-10-16T08:34:33;6.72;;;3.75;;
66212;SDS011;53015;50.046;8.238;2022-10-16T08:36:59;6.03;;;3.88;;
66212;SDS011;53015;50.046;8.238;2022-10-16T08:39:24;6.25;;;3.63;;
66212;SDS011;53015;50.046;8.238;2022-10-16T08:49:17;6.25;;;3.55;;
66212;SDS011;53015;50.046;8.238;2022-10-16T08:51:43;4.55;;;3.88;;
66212;SDS011;53015;50.046;8.238;2022-10-16T08:56:48;8.93;;;3.40;;
66212;SDS011;53015;50.046;8.238;2022-10-16T08:59:13;4.97;;;3.20;;
66212;SDS011;53015;50.046;8.238;2022-10-16T09:01:41;6.82;;;3.30;;
66212;SDS011;53015;50.046;8.238;2022-10-16T09:04:30;7.55;;;3.38;;
66212;SDS011;53015;50.046;8.238;2022-10-16T09:23:46;3.70;;;3.13;;
66212;SDS011;53015;50.046;8.238;2022-10-16T09:26:13;5.20;;;3.20;;
66212;SDS011;53015;50.046;8.238;2022-10-16T09:28:40;6.72;;;3.30;;
66212;SDS011;53015;50.046;8.238;2022-10-16T09:31:09;3.97;;;3.28;;
66212;SDS011;53015;50.046;8.238;2022-10-16T09:33:40;6.88;;;3.30;;
66212;SDS011;53015;50.046;8.238;2022-10-16T09:36:06;4.95;;;2.95;;
66212;SDS011;53015;50.046;8.238;2022-10-16T09:38:35;3.70;;;2.50;;
66212;SDS011;53015;50.046;8.238;2022-10-16T09:41:02;2.40;;;2.20;;
66212;SDS011;53015;50.046;8.238;2022-10-16T09:43:41;4.30;;;2.35;;
66212;SDS011;53015;50.046;8.238;2022-10-16T09:46:24;3.25;;;2.03;;
66212;SDS011;53015;50.046;8.238;2022-10-16T09:48:57;2.72;;;1.80;;
66212;SDS011;53015;50.046;8.238;2022-10-16T09:51:26;6.40;;;1.40;;
66212;SDS011;53015;50.046;8.238;2022-10-16T09:53:56;6.35;;;1.45;;
66212;SDS011;53015;50.046;8.238;2022-10-16T09:56:29;6.70;;;1.60;;
66212;SDS011;53015;50.046;8.238;2022-10-16T09:59:17;3.10;;;1.52;;
66212;SDS011;53015;50.046;8.238;2022-10-16T10:01:49;4.32;;;1.83;;
66212;SDS011;53015;50.046;8.238;2022-10-16T10:04:16;4.22;;;1.65;;
66212;SDS011;53015;50.046;8.238;2022-10-16T10:06:44;5.07;;;1.50;;
66212;SDS011;53015;50.046;8.238;2022-10-16T10:11:57;2.97;;;2.10;;
66212;SDS011;53015;50.046;8.238;2022-10-16T10:14:37;3.38;;;2.20;;
66212;SDS011;53015;50.046;8.238;2022-10-16T10:17:13;2.42;;;1.70;;
66212;SDS011;53015;50.046;8.238;2022-10-16T10:20:13;8.60;;;1.83;;
66212;SDS011;53015;50.046;8.238;2022-10-16T10:22:46;3.30;;;1.63;;
66212;SDS011;53015;50.046;8.238;2022-10-16T10:33:28;7.25;;;2.35;;
66212;SDS011;53015;50.046;8.238;2022-10-16T10:36:12;7.53;;;2.78;;
66212;SDS011;53015;50.046;8.238;2022-10-16T10:46:42;3.75;;;1.98;;
66212;SDS011;53015;50.046;8.238;2022-10-16T10:54:48;3.63;;;1.95;;
66212;SDS011;53015;50.046;8.238;2022-10-16T10:57:29;4.45;;;1.65;;
66212;SDS011;53015;50.046;8.238;2022-10-16T11:00:09;6.00;;;1.67;;
66212;SDS011;53015;50.046;8.238;2022-10-16T11:02:41;4.28;;;1.60;;
66212;SDS011;53015;50.046;8.238;2022-10-16T11:13:35;4.43;;;1.70;;
66212;SDS011;53015;50.046;8.238;2022-10-16T11:16:10;3.67;;;1.70;;
66212;SDS011;53015;50.046;8.238;2022-10-16T11:18:43;5.55;;;1.85;;
66212;SDS011;53015;50.046;8.238;2022-10-16T11:21:15;2.75;;;1.38;;
66212;SDS011;53015;50.046;8.238;2022-10-16T11:26:41;6.05;;;1.70;;
66212;SDS011;53015;50.046;8.238;2022-10-16T11:29:13;3.10;;;2.00;;
66212;SDS011;53015;50.046;8.238;2022-10-16T11:31:52;5.20;;;1.77;;
66212;SDS011;53015;50.046;8.238;2022-10-16T11:39:38;2.55;;;1.13;;
66212;SDS011;53015;50.046;8.238;2022-10-16T11:50:10;4.93;;;1.25;;
66212;SDS011;53015;50.046;8.238;2022-10-16T11:55:39;3.30;;;1.08;;
66212;SDS011;53015;50.046;8.238;2022-10-16T11:58:06;1.77;;;1.00;;
66212;SDS011;53015;50.046;8.238;2022-10-16T12:00:46;4.82;;;1.20;;
66212;SDS011;53015;50.046;8.238;2022-10-16T12:03:22;2.17;;;1.10;;
66212;SDS011;53015;50.046;8.238;2022-10-16T12:08:40;4.07;;;0.90;;
66212;SDS011;53015;50.046;8.238;2022-10-16T12:11:09;1.35;;;1.10;;
66212;SDS011;53015;50.046;8.238;2022-10-16T12:13:47;3.25;;;1.30;;
66212;SDS011;53015;50.046;8.238;2022-10-16T12:18:43;4.05;;;1.10;;
66212;SDS011;53015;50.046;8.238;2022-10-16T12:21:10;1.58;;;1.02;;
66212;SDS011;53015;50.046;8.238;2022-10-16T12:23:54;5.75;;;1.27;;
66212;SDS011;53015;50.046;8.238;2022-10-16T12:26:25;1.63;;;1.20;;
66212;SDS011;53015;50.046;8.238;2022-10-16T12:28:52;3.63;;;1.30;;
66212;SDS011;53015;50.046;8.238;2022-10-16T12:31:18;1.20;;;0.98;;
66212;SDS011;53015;50.046;8.238;2022-10-16T12:33:57;2.78;;;1.20;;
66212;SDS011;53015;50.046;8.238;2022-10-16T12:36:32;6.65;;;2.70;;
66212;SDS011;53015;50.046;8.238;2022-10-16T12:38:59;1.73;;;1.33;;
66212;SDS011;53015;50.046;8.238;2022-10-16T12:41:32;2.08;;;1.30;;
66212;SDS011;53015;50.046;8.238;2022-10-16T12:44:00;2.63;;;1.00;;
66212;SDS011;53015;50.046;8.238;2022-10-16T12:51:38;1.40;;;1.13;;
66212;SDS011;53015;50.046;8.238;2022-10-16T12:54:15;3.13;;;1.13;;
66212;SDS011;53015;50.046;8.238;2022-10-16T12:59:18;2.50;;;1.17;;
66212;SDS011;53015;50.046;8.238;2022-10-16T13:04:47;1.42;;;1.00;;
66212;SDS011;53015;50.046;8.238;2022-10-16T13:10:13;5.88;;;1.00;;
66212;SDS011;53015;50.046;8.238;2022-10-16T13:15:27;1.00;;;0.90;;
66212;SDS011;53015;50.046;8.238;2022-10-16T13:18:13;3.08;;;0.90;;
66212;SDS011;53015;50.046;8.238;2022-10-16T13:23:51;1.00;;;0.80;;
66212;SDS011;53015;50.046;8.238;2022-10-16T13:26:40;3.22;;;0.73;;
66212;SDS011;53015;50.046;8.238;2022-10-16T13:29:06;2.88;;;0.90;;
66212;SDS011;53015;50.046;8.238;2022-10-16T13:31:32;2.72;;;1.00;;
66212;SDS011;53015;50.046;8.238;2022-10-16T13:33:59;3.10;;;1.00;;
66212;SDS011;53015;50.046;8.238;2022-10-16T13:36:26;2.88;;;0.90;;
66212;SDS011;53015;50.046;8.238;2022-10-16T13:41:29;3.05;;;0.80;;
66212;SDS011;53015;50.046;8.238;2022-10-16T13:43:54;2.22;;;0.80;;
66212;SDS011;53015;50.046;8.238;2022-10-16T13:46:22;2.58;;;1.00;;
66212;SDS011;53015;50.046;8.238;2022-10-16T13:48:59;2.72;;;1.60;;
66212;SDS011;53015;50.046;8.238;2022-10-16T13:51:27;2.53;;;1.55;;
66212;SDS011;53015;50.046;8.238;2022-10-16T13:53:54;1.70;;;1.50;;
66212;SDS011;53015;50.046;8.238;2022-10-16T13:56:22;4.85;;;1.63;;
66212;SDS011;53015;50.046;8.238;2022-10-16T13:59:06;3.10;;;1.70;;
66212;SDS011;53015;50.046;8.238;2022-10-16T14:01:47;2.53;;;1.58;;
66212;SDS011;53015;50.046;8.238;2022-10-16T14:04:13;2.63;;;1.50;;
66212;SDS011;53015;50.046;8.238;2022-10-16T14:06:43;2.92;;;1.25;;
66212;SDS011;53015;50.046;8.238;2022-10-16T14:11:51;3.05;;;1.30;;
66212;SDS011;53015;50.046;8.238;2022-10-16T14:14:19;2.97;;;1.00;;
66212;SDS011;53015;50.046;8.238;2022-10-16T14:16:45;1.45;;;1.05;;
66212;SDS011;53015;50.046;8.238;2022-10-16T14:19:27;2.17;;;1.35;;
66212;SDS011;53015;50.046;8.238;2022-10-16T14:21:54;3.80;;;1.10;;
66212;SDS011;53015;50.046;8.238;2022-10-16T14:24:31;2.03;;;1.15;;
66212;SDS011;53015;50.046;8.238;2022-10-16T14:26:59;1.10;;;1.00;;
66212;SDS011;53015;50.046;8.238;2022-10-16T14:29:26;1.40;;;1.13;;
66212;SDS011;53015;50.046;8.238;2022-10-16T14:31:56;1.50;;;1.40;;
66212;SDS011;53015;50.046;8.238;2022-10-16T14:36:58;1.83;;;1.50;;
66212;SDS011;53015;50.046;8.238;2022-10-16T14:39:27;3.50;;;1.13;;
66212;SDS011;53015;50.046;8.238;2022-10-16T14:41:55;2.45;;;1.00;;
66212;SDS011;53015;50.046;8.238;2022-10-16T14:44:23;1.63;;;1.00;;
66212;SDS011;53015;50.046;8.238;2022-10-16T14:46:53;0.90;;;0.90;;
66212;SDS011;53015;50.046;8.238;2022-10-16T14:49:19;1.80;;;1.60;;
66212;SDS011;53015;50.046;8.238;2022-10-16T14:51:46;2.28;;;1.10;;
66212;SDS011;53015;50.046;8.238;2022-10-16T14:54:16;3.85;;;1.65;;
66212;SDS011;53015;50.046;8.238;2022-10-16T14:59:35;2.03;;;1.42;;
66212;SDS011;53015;50.046;8.238;2022-10-16T15:02:47;3.92;;;1.88;;
66212;SDS011;53015;50.046;8.238;2022-10-16T15:04:49;3.08;;;1.90;;
66212;SDS011;53015;50.046;8.238;2022-10-16T15:07:15;2.75;;;1.70;;
66212;SDS011;53015;50.046;8.238;2022-10-16T15:09:40;3.58;;;2.00;;
66212;SDS011;53015;50.046;8.238;2022-10-16T15:12:06;2.03;;;1.67;;
66212;SDS011;53015;50.046;8.238;2022-10-16T15:14:31;3.88;;;1.80;;
66212;SDS011;53015;50.046;8.238;2022-10-16T15:16:57;5.53;;;1.70;;
66212;SDS011;53015;50.046;8.238;2022-10-16T15:19:22;3.40;;;2.50;;
66212;SDS011;53015;50.046;8.238;2022-10-16T15:21:48;4.22;;;3.00;;
66212;SDS011;53015;50.046;8.238;2022-10-16T15:24:14;2.75;;;1.90;;
66212;SDS011;53015;50.046;8.238;2022-10-16T15:26:40;3.50;;;2.28;;
66212;SDS011;53015;50.046;8.238;2022-10-16T15:29:05;5.18;;;2.70;;
66212;SDS011;53015;50.046;8.238;2022-10-16T15:31:31;3.97;;;2.10;;
66212;SDS011;53015;50.046;8.238;2022-10-16T15:33:56;4.38;;;1.83;;
66212;SDS011;53015;50.046;8.238;2022-10-16T15:36:30;3.03;;;1.55;;
66212;SDS011;53015;50.046;8.238;2022-10-16T15:38:59;4.10;;;2.20;;
66212;SDS011;53015;50.046;8.238;2022-10-16T15:41:25;2.83;;;2.17;;
66212;SDS011;53015;50.046;8.238;2022-10-16T15:43:50;5.70;;;2.15;;
66212;SDS011;53015;50.046;8.238;2022-10-16T15:46:20;2.35;;;1.92;;
66212;SDS011;53015;50.046;8.238;2022-10-16T15:48:47;4.25;;;2.70;;
66212;SDS011;53015;50.046;8.238;2022-10-16T15:51:14;4.63;;;2.10;;
66212;SDS011;53015;50.046;8.238;2022-10-16T15:53:40;6.93;;;3.80;;
66212;SDS011;53015;50.046;8.238;2022-10-16T15:56:07;5.90;;;2.88;;
66212;SDS011;53015;50.046;8.238;2022-10-16T15:58:34;5.32;;;2.78;;
66212;SDS011;53015;50.046;8.238;2022-10-16T16:01:00;5.38;;;3.55;;
66212;SDS011;53015;50.046;8.238;2022-10-16T16:03:27;4.63;;;2.70;;
66212;SDS011;53015;50.046;8.238;2022-10-16T16:05:53;9.45;;;2.53;;
66212;SDS011;53015;50.046;8.238;2022-10-16T16:08:19;5.32;;;2.90;;
66212;SDS011;53015;50.046;8.238;2022-10-16T16:10:45;3.30;;;2.40;;
66212;SDS011;53015;50.046;8.238;2022-10-16T16:13:12;6.03;;;2.38;;
66212;SDS011;53015;50.046;8.238;2022-10-16T16:15:40;3.28;;;2.88;;
66212;SDS011;53015;50.046;8.238;2022-10-16T16:18:06;6.30;;;3.35;;
66212;SDS011;53015;50.046;8.238;2022-10-16T16:20:31;8.23;;;3.63;;
66212;SDS011;53015;50.046;8.238;2022-10-16T16:22:57;3.75;;;2.67;;
66212;SDS011;53015;50.046;8.238;2022-10-16T16:25:23;6.05;;;2.22;;
66212;SDS011;53015;50.046;8.238;2022-10-16T16:27:48;3.85;;;2.30;;
66212;SDS011;53015;50.046;8.238;2022-10-16T16:30:14;4.78;;;1.88;;
66212;SDS011;53015;50.046;8.238;2022-10-16T16:32:39;5.30;;;2.17;;
66212;SDS011;53015;50.046;8.238;2022-10-16T16:35:05;6.53;;;2.17;;
66212;SDS011;53015;50.046;8.238;2022-10-16T16:37:30;5.13;;;2.30;;
66212;SDS011;53015;50.046;8.238;2022-10-16T16:39:56;5.65;;;1.92;;
66212;SDS011;53015;50.046;8.238;2022-10-16T16:42:23;3.90;;;2.30;;
66212;SDS011;53015;50.046;8.238;2022-10-16T16:44:50;9.80;;;2.60;;
66212;SDS011;53015;50.046;8.238;2022-10-16T16:47:15;3.83;;;2.42;;
66212;SDS011;53015;50.046;8.238;2022-10-16T16:49:41;10.45;;;2.90;;
66212;SDS011;53015;50.046;8.238;2022-10-16T16:52:06;3.20;;;2.50;;
66212;SDS011;53015;50.046;8.238;2022-10-16T16:54:32;5.13;;;2.78;;
66212;SDS011;53015;50.046;8.238;2022-10-16T16:56:57;5.90;;;2.67;;